createdAt,value
2022-12-26T00:00:30.653Z,95.56
2022-12-26T00:03:18.843Z,94.20
2022-12-26T00:06:13.577Z,96.12
2022-12-26T00:09:03.988Z,95.23
2022-12-26T00:11:52.244Z,94.38
2022-12-26T00:14:40.937Z,94.43
2022-12-26T00:17:29.030Z,93.47
2022-12-26T00:20:17.283Z,93.33
2022-12-26T00:23:06.607Z,92.43
2022-12-26T00:25:54.547Z,92.24
2022-12-26T00:28:43.185Z,93.21
2022-12-26T00:31:34.275Z,92.39
2022-12-26T00:34:22.312Z,93.21
2022-12-26T00:37:10.380Z,93.26
2022-12-26T00:39:59.681Z,93.83
2022-12-26T00:42:47.648Z,92.54
2022-12-26T00:45:35.597Z,93.17
2022-12-26T00:48:23.842Z,91.73
2022-12-26T00:51:11.924Z,93.97
2022-12-26T00:53:59.844Z,93.42
2022-12-26T00:56:49.173Z,93.45
2022-12-26T00:59:37.137Z,94.27
2022-12-26T01:02:38.837Z,93.32
2022-12-26T01:05:28.225Z,95.43
2022-12-26T01:08:21.823Z,97.82
2022-12-26T01:11:14.325Z,97.90
2022-12-26T01:14:03.694Z,95.35
2022-12-26T01:16:51.669Z,94.07
2022-12-26T01:19:39.662Z,94.25
2022-12-26T01:22:28.628Z,94.05
2022-12-26T01:25:16.701Z,94.96
2022-12-26T01:28:04.953Z,94.64
2022-12-26T01:30:54.361Z,94.33
2022-12-26T01:33:42.388Z,96.66
2022-12-26T01:36:30.470Z,95.31
2022-12-26T01:39:18.409Z,94.85
2022-12-26T01:42:14.098Z,95.51
2022-12-26T01:45:06.193Z,95.75
2022-12-26T01:48:03.154Z,97.05
2022-12-26T01:50:55.278Z,95.71
2022-12-26T01:53:46.773Z,96.96
2022-12-26T01:56:38.554Z,97.18
2022-12-26T01:59:31.745Z,97.10
2022-12-26T02:02:21.823Z,98.17
2022-12-26T02:05:40.358Z,98.49
2022-12-26T02:08:31.995Z,97.93
2022-12-26T02:11:23.710Z,98.94
2022-12-26T02:14:13.085Z,100.00
2022-12-26T02:17:01.353Z,98.56
2022-12-26T02:20:03.952Z,99.99
2022-12-26T02:23:19.738Z,99.59
2022-12-26T02:26:42.357Z,99.01
2022-12-26T02:30:24.708Z,99.92
2022-12-26T02:33:27.958Z,100.00
2022-12-26T02:36:27.723Z,100.00
2022-12-26T02:39:44.329Z,98.53
2022-12-26T02:42:45.658Z,98.04
2022-12-26T02:46:13.888Z,100.00
2022-12-26T02:49:12.658Z,100.00
2022-12-26T02:52:28.094Z,100.00
2022-12-26T02:55:35.147Z,100.00
2022-12-26T02:58:43.905Z,100.00
2022-12-26T03:01:55.008Z,99.97
2022-12-26T03:05:04.301Z,100.00
2022-12-26T03:08:10.058Z,100.00
2022-12-26T03:11:17.329Z,100.00
2022-12-26T03:14:15.182Z,100.00
2022-12-26T03:17:21.742Z,100.00
2022-12-26T03:20:14.476Z,99.96
2022-12-26T03:23:06.538Z,99.49
2022-12-26T03:26:14.529Z,100.00
2022-12-26T03:29:19.196Z,99.89
2022-12-26T03:32:11.959Z,98.70
2022-12-26T03:34:59.936Z,98.80
2022-12-26T03:37:53.746Z,96.56
2022-12-26T03:41:08.993Z,97.96
2022-12-26T03:44:26.752Z,96.34
2022-12-26T03:47:42.952Z,93.41
2022-12-26T03:50:54.240Z,93.58
2022-12-26T03:54:06.897Z,96.46
2022-12-26T03:57:18.552Z,96.86
2022-12-26T04:00:27.353Z,95.48
2022-12-26T04:03:36.346Z,96.96
2022-12-26T04:06:46.625Z,96.55
2022-12-26T04:09:56.254Z,99.40
2022-12-26T04:13:05.920Z,99.22
2022-12-26T04:16:16.908Z,99.89
2022-12-26T04:19:26.114Z,100.00
2022-12-26T04:22:37.106Z,99.57
2022-12-26T04:25:50.860Z,100.00
2022-12-26T04:28:57.213Z,100.00
2022-12-26T04:32:08.394Z,100.00
2022-12-26T04:35:22.357Z,100.00
2022-12-26T04:38:30.248Z,100.00
2022-12-26T04:41:38.398Z,100.00
2022-12-26T04:44:29.781Z,100.00
2022-12-26T04:47:18.563Z,100.00
2022-12-26T04:50:13.435Z,100.00
2022-12-26T04:53:01.501Z,100.00
2022-12-26T04:55:49.806Z,100.00
2022-12-26T04:58:37.838Z,100.00
2022-12-26T05:01:43.567Z,100.00
2022-12-26T05:04:49.068Z,100.00
2022-12-26T05:07:56.315Z,100.00
2022-12-26T05:10:44.318Z,100.00
2022-12-26T05:13:32.287Z,100.00
2022-12-26T05:16:37.778Z,100.00
2022-12-26T05:19:43.446Z,100.00
2022-12-26T05:22:51.929Z,100.00
2022-12-26T05:26:02.143Z,100.00
2022-12-26T05:28:55.452Z,100.00
2022-12-26T05:31:43.706Z,100.00
2022-12-26T05:34:30.781Z,100.00
2022-12-26T05:37:18.776Z,100.00
2022-12-26T05:40:08.183Z,100.00
2022-12-26T05:42:57.787Z,100.00
2022-12-26T05:45:45.746Z,100.00
2022-12-26T05:48:35.620Z,100.00
2022-12-26T05:51:23.612Z,100.00
2022-12-26T05:54:11.953Z,100.00
2022-12-26T05:57:01.450Z,100.00
2022-12-26T05:59:50.772Z,100.00
2022-12-26T06:02:39.059Z,100.00
2022-12-26T06:05:27.508Z,100.00
2022-12-26T06:08:15.494Z,100.00
2022-12-26T06:11:06.072Z,100.00
2022-12-26T06:13:54.251Z,100.00
2022-12-26T06:16:43.762Z,100.00
2022-12-26T06:19:31.746Z,100.00
2022-12-26T06:22:19.879Z,100.00
2022-12-26T06:25:09.104Z,100.00
2022-12-26T06:27:57.052Z,100.00
2022-12-26T06:30:45.227Z,100.00
2022-12-26T06:33:34.778Z,100.00
2022-12-26T06:36:24.608Z,100.00
2022-12-26T06:39:12.551Z,100.00
2022-12-26T06:42:00.584Z,100.00
2022-12-26T06:44:48.515Z,100.00
2022-12-26T06:47:36.488Z,100.00
2022-12-26T06:50:26.234Z,100.00
2022-12-26T06:53:14.209Z,100.00
2022-12-26T06:56:07.222Z,100.00
2022-12-26T06:58:56.047Z,100.00
2022-12-26T07:01:44.083Z,100.00
2022-12-26T07:04:13.873Z,100.00
2022-12-26T07:06:43.137Z,100.00
2022-12-26T07:09:14.531Z,100.00
2022-12-26T07:11:46.174Z,100.00
2022-12-26T07:14:14.344Z,100.00
2022-12-26T07:16:43.888Z,100.00
2022-12-26T07:19:13.208Z,100.00
2022-12-26T07:21:41.418Z,100.00
2022-12-26T07:24:15.965Z,100.00
2022-12-26T07:26:44.052Z,100.00
2022-12-26T07:29:12.799Z,100.00
2022-12-26T07:31:41.254Z,100.00
2022-12-26T07:34:09.805Z,100.00
2022-12-26T07:36:37.607Z,100.00
2022-12-26T07:39:05.395Z,100.00
2022-12-26T07:41:52.337Z,100.00
2022-12-26T07:44:20.072Z,100.00
2022-12-26T07:46:47.724Z,100.00
2022-12-26T07:49:15.825Z,100.00
2022-12-26T07:51:44.086Z,100.00
2022-12-26T07:54:12.274Z,100.00
2022-12-26T07:56:42.431Z,100.00
2022-12-26T07:59:14.272Z,100.00
2022-12-26T08:01:42.238Z,100.00
2022-12-26T08:04:11.543Z,100.00
2022-12-26T08:06:39.632Z,100.00
2022-12-26T08:09:07.633Z,100.00
2022-12-26T08:11:36.344Z,100.00
2022-12-26T08:14:05.398Z,100.00
2022-12-26T08:16:33.308Z,100.00
2022-12-26T08:19:03.623Z,100.00
2022-12-26T08:21:31.687Z,100.00
2022-12-26T08:23:59.390Z,100.00
2022-12-26T08:26:27.108Z,100.00
2022-12-26T08:28:56.957Z,100.00
2022-12-26T08:33:56.545Z,100.00
2022-12-26T08:36:24.422Z,100.00
2022-12-26T08:38:52.162Z,100.00
2022-12-26T08:41:20.053Z,100.00
2022-12-26T08:46:40.597Z,100.00
2022-12-26T08:49:08.400Z,100.00
2022-12-26T08:51:36.381Z,100.00
2022-12-26T08:54:04.451Z,100.00
2022-12-26T08:56:32.809Z,100.00
2022-12-26T08:59:00.538Z,100.00
2022-12-26T09:01:29.890Z,100.00
2022-12-26T09:04:00.755Z,100.00
2022-12-26T09:06:30.271Z,100.00
2022-12-26T09:09:00.461Z,100.00
2022-12-26T09:11:29.314Z,100.00
2022-12-26T09:13:59.250Z,100.00
2022-12-26T09:16:34.128Z,100.00
2022-12-26T09:19:07.718Z,100.00
2022-12-26T09:21:35.504Z,100.00
2022-12-26T09:24:05.061Z,100.00
2022-12-26T09:26:33.220Z,100.00
2022-12-26T09:29:01.167Z,100.00
2022-12-26T09:31:31.799Z,100.00
2022-12-26T09:33:59.859Z,100.00
2022-12-26T09:36:31.423Z,100.00
2022-12-26T09:39:00.220Z,100.00
2022-12-26T09:41:43.998Z,100.00
2022-12-26T09:44:18.697Z,100.00
2022-12-26T09:46:57.478Z,100.00
2022-12-26T09:49:28.941Z,100.00
2022-12-26T09:52:01.624Z,100.00
2022-12-26T09:54:34.204Z,100.00
2022-12-26T09:57:11.256Z,100.00
2022-12-26T09:59:48.184Z,100.00
2022-12-26T10:02:19.480Z,100.00
2022-12-26T10:04:47.386Z,100.00
2022-12-26T10:07:23.829Z,100.00
2022-12-26T10:09:59.293Z,100.00
2022-12-26T10:12:38.532Z,100.00
2022-12-26T10:15:29.024Z,100.00
2022-12-26T10:18:05.946Z,100.00
2022-12-26T10:20:44.656Z,100.00
2022-12-26T10:23:31.440Z,100.00
2022-12-26T10:26:07.926Z,100.00
2022-12-26T10:28:40.263Z,100.00
2022-12-26T10:31:14.918Z,100.00
2022-12-26T10:33:48.025Z,100.00
2022-12-26T10:36:29.134Z,100.00
2022-12-26T10:39:00.842Z,100.00
2022-12-26T10:41:36.320Z,100.00
2022-12-26T10:44:04.100Z,100.00
2022-12-26T10:46:55.621Z,100.00
2022-12-26T10:49:26.675Z,100.00
2022-12-26T10:51:56.283Z,100.00
2022-12-26T10:54:25.735Z,100.00
2022-12-26T10:56:56.573Z,100.00
2022-12-26T10:59:31.474Z,100.00
2022-12-26T11:02:13.966Z,100.00
2022-12-26T11:05:27.392Z,100.00
2022-12-26T11:07:50.856Z,100.00
2022-12-26T11:10:22.403Z,100.00
2022-12-26T11:12:52.302Z,100.00
2022-12-26T11:15:24.201Z,100.00
2022-12-26T11:17:54.148Z,100.00
2022-12-26T11:20:29.615Z,100.00
2022-12-26T11:23:19.483Z,100.00
2022-12-26T11:25:52.028Z,100.00
2022-12-26T11:28:26.025Z,100.00
2022-12-26T11:30:54.027Z,100.00
2022-12-26T11:33:28.049Z,100.00
2022-12-26T11:36:06.149Z,100.00
2022-12-26T11:38:44.823Z,100.00
2022-12-26T11:41:33.625Z,100.00
2022-12-26T11:44:13.472Z,100.00
2022-12-26T11:46:44.235Z,100.00
2022-12-26T11:49:20.093Z,100.00
2022-12-26T11:51:52.916Z,100.00
2022-12-26T11:54:36.258Z,100.00
2022-12-26T11:57:16.086Z,100.00
2022-12-26T11:59:43.821Z,100.00
2022-12-26T12:02:19.432Z,100.00
2022-12-26T12:04:48.820Z,100.00
2022-12-26T12:07:30.052Z,100.00
2022-12-26T12:10:09.480Z,100.00
2022-12-26T12:12:43.960Z,100.00
2022-12-26T12:15:20.445Z,100.00
2022-12-26T12:18:03.767Z,100.00
2022-12-26T12:20:40.431Z,100.00
2022-12-26T12:23:27.081Z,100.00
2022-12-26T12:26:06.607Z,100.00
2022-12-26T12:29:06.852Z,100.00
2022-12-26T12:31:46.705Z,100.00
2022-12-26T12:34:26.357Z,100.00
2022-12-26T12:37:05.459Z,100.00
2022-12-26T12:39:47.209Z,100.00
2022-12-26T12:42:29.882Z,100.00
2022-12-26T12:45:18.565Z,100.00
2022-12-26T12:47:58.150Z,100.00
2022-12-26T12:50:32.652Z,100.00
2022-12-26T12:53:10.335Z,100.00
2022-12-26T12:55:52.912Z,100.00
2022-12-26T12:58:30.370Z,100.00
2022-12-26T13:01:04.781Z,100.00
2022-12-26T13:03:39.620Z,100.00
2022-12-26T13:06:12.951Z,100.00
2022-12-26T13:08:44.871Z,100.00
2022-12-26T13:11:18.680Z,100.00
2022-12-26T13:13:53.708Z,100.00
2022-12-26T13:16:25.879Z,100.00
2022-12-26T13:18:59.276Z,100.00
2022-12-26T13:21:28.276Z,100.00
2022-12-26T13:24:18.142Z,100.00
2022-12-26T13:26:50.816Z,100.00
2022-12-26T13:29:26.594Z,100.00
2022-12-26T13:31:54.386Z,100.00
2022-12-26T13:34:23.615Z,100.00
2022-12-26T13:36:53.715Z,100.00
2022-12-26T13:39:30.591Z,100.00
2022-12-26T13:42:21.061Z,100.00
2022-12-26T13:44:53.464Z,100.00
2022-12-26T13:47:33.567Z,100.00
2022-12-26T13:50:34.821Z,100.00
2022-12-26T13:53:04.773Z,100.00
2022-12-26T13:55:43.733Z,100.00
2022-12-26T13:58:37.471Z,100.00
2022-12-26T14:01:13.770Z,100.00
2022-12-26T14:03:51.864Z,100.00
2022-12-26T14:06:50.365Z,100.00
2022-12-26T14:09:42.270Z,100.00
2022-12-26T14:12:55.703Z,100.00
2022-12-26T14:15:31.097Z,100.00
2022-12-26T14:18:12.064Z,100.00
2022-12-26T14:20:45.722Z,100.00
2022-12-26T14:23:29.942Z,100.00
2022-12-26T14:26:05.655Z,100.00
2022-12-26T14:28:51.276Z,100.00
2022-12-26T14:31:26.104Z,100.00
2022-12-26T14:34:08.807Z,100.00
2022-12-26T14:36:45.645Z,100.00
2022-12-26T14:39:25.420Z,100.00
2022-12-26T14:42:37.489Z,100.00
2022-12-26T14:45:14.222Z,100.00
2022-12-26T14:47:45.877Z,100.00
2022-12-26T14:50:36.831Z,100.00
2022-12-26T14:53:31.421Z,100.00
2022-12-26T14:56:00.752Z,100.00
2022-12-26T14:58:39.831Z,100.00
2022-12-26T15:01:48.218Z,100.00
2022-12-26T15:04:42.948Z,100.00
2022-12-26T15:07:46.389Z,100.00
2022-12-26T15:10:43.467Z,100.00
2022-12-26T15:13:43.727Z,100.00
2022-12-26T15:16:23.855Z,100.00
2022-12-26T15:19:12.304Z,100.00
2022-12-26T15:22:00.856Z,100.00
2022-12-26T15:25:18.914Z,100.00
2022-12-26T15:28:23.504Z,100.00
2022-12-26T15:31:08.687Z,100.00
2022-12-26T15:33:41.760Z,100.00
2022-12-26T15:36:22.371Z,100.00
2022-12-26T15:38:58.657Z,100.00
2022-12-26T15:41:36.404Z,100.00
2022-12-26T15:44:22.292Z,100.00
2022-12-26T15:46:58.402Z,100.00
2022-12-26T15:49:43.717Z,100.00
2022-12-26T15:52:21.061Z,100.00
2022-12-26T15:55:20.219Z,100.00
2022-12-26T15:57:54.535Z,100.00
2022-12-26T16:00:23.517Z,100.00
2022-12-26T16:03:07.669Z,100.00
2022-12-26T16:05:48.544Z,100.00
2022-12-26T16:08:36.687Z,100.00
2022-12-26T16:11:20.208Z,100.00
2022-12-26T16:14:00.045Z,100.00
2022-12-26T16:16:30.997Z,100.00
2022-12-26T16:18:59.462Z,100.00
2022-12-26T16:21:47.757Z,100.00
2022-12-26T16:24:23.108Z,100.00
2022-12-26T16:26:50.806Z,100.00
2022-12-26T16:29:21.883Z,100.00
2022-12-26T16:31:49.577Z,100.00
2022-12-26T16:34:20.408Z,100.00
2022-12-26T16:36:51.031Z,100.00
2022-12-26T16:39:23.467Z,100.00
2022-12-26T16:42:02.757Z,100.00
2022-12-26T16:44:38.012Z,100.00
2022-12-26T16:47:11.198Z,100.00
2022-12-26T16:49:41.493Z,100.00
2022-12-26T16:52:31.253Z,100.00
2022-12-26T16:54:58.938Z,100.00
2022-12-26T16:57:27.368Z,100.00
2022-12-26T16:59:58.082Z,100.00
2022-12-26T17:02:29.600Z,100.00
2022-12-26T17:05:09.269Z,100.00
2022-12-26T17:07:44.404Z,100.00
2022-12-26T17:10:19.496Z,100.00
2022-12-26T17:12:48.313Z,100.00
2022-12-26T17:15:21.857Z,100.00
2022-12-26T17:17:49.753Z,100.00
2022-12-26T17:20:38.029Z,100.00
2022-12-26T17:23:33.764Z,100.00
2022-12-26T17:26:22.640Z,100.00
2022-12-26T17:28:51.117Z,100.00
2022-12-26T17:31:24.730Z,100.00
2022-12-26T17:33:56.743Z,100.00
2022-12-26T17:39:23.279Z,100.00
2022-12-26T17:41:52.825Z,100.00
2022-12-26T17:44:40.867Z,100.00
2022-12-26T17:47:17.435Z,100.00
2022-12-26T17:49:45.442Z,100.00
2022-12-26T17:52:14.866Z,100.00
2022-12-26T17:54:43.923Z,100.00
2022-12-26T17:57:18.549Z,100.00
2022-12-26T17:59:46.824Z,100.00
2022-12-26T18:02:15.019Z,100.00
2022-12-26T18:04:43.535Z,100.00
2022-12-26T18:07:15.973Z,100.00
2022-12-26T18:09:46.588Z,100.00
2022-12-26T18:12:15.774Z,100.00
2022-12-26T18:14:43.928Z,100.00
2022-12-26T18:17:14.800Z,100.00
2022-12-26T18:19:42.652Z,100.00
2022-12-26T18:22:15.024Z,100.00
2022-12-26T18:24:43.668Z,100.00
2022-12-26T18:27:19.094Z,100.00
2022-12-26T18:29:46.933Z,100.00
2022-12-26T18:32:23.510Z,100.00
2022-12-26T18:34:51.554Z,100.00
2022-12-26T18:37:19.849Z,100.00
2022-12-26T18:39:47.755Z,100.00
2022-12-26T18:42:18.089Z,100.00
2022-12-26T18:44:45.964Z,100.00
2022-12-26T18:47:15.156Z,100.00
2022-12-26T18:49:45.161Z,100.00
2022-12-26T18:52:17.661Z,100.00
2022-12-26T18:54:46.178Z,100.00
2022-12-26T18:57:19.953Z,100.00
2022-12-26T18:59:48.912Z,100.00
2022-12-26T19:02:18.583Z,100.00
2022-12-26T19:04:48.357Z,100.00
2022-12-26T19:07:17.271Z,100.00
2022-12-26T19:09:45.814Z,100.00
2022-12-26T19:12:13.660Z,100.00
2022-12-26T19:14:45.047Z,100.00
2022-12-26T19:17:12.932Z,100.00
2022-12-26T19:19:40.608Z,100.00
2022-12-26T19:22:08.303Z,100.00
2022-12-26T19:24:35.986Z,100.00
2022-12-26T19:27:03.950Z,100.00
2022-12-26T19:29:31.785Z,100.00
2022-12-26T19:32:00.834Z,100.00
2022-12-26T19:34:28.942Z,100.00
2022-12-26T19:36:56.609Z,100.00
2022-12-26T19:39:24.270Z,100.00
2022-12-26T19:41:51.986Z,100.00
2022-12-26T19:44:19.867Z,100.00
2022-12-26T19:46:47.899Z,100.00
2022-12-26T19:49:17.235Z,100.00
2022-12-26T19:51:44.945Z,100.00
2022-12-26T19:54:12.598Z,100.00
2022-12-26T19:56:40.284Z,100.00
2022-12-26T19:59:07.866Z,100.00
2022-12-26T20:01:35.603Z,100.00
2022-12-26T20:04:04.979Z,100.00
2022-12-26T20:06:37.777Z,100.00
2022-12-26T20:09:08.587Z,100.00
2022-12-26T20:11:37.808Z,100.00
2022-12-26T20:14:07.456Z,100.00
2022-12-26T20:17:04.245Z,100.00
2022-12-26T20:19:24.713Z,100.00
2022-12-26T20:21:54.229Z,100.00
2022-12-26T20:24:22.898Z,100.00
2022-12-26T20:26:51.139Z,100.00
2022-12-26T20:29:19.098Z,100.00
2022-12-26T20:31:46.944Z,100.00
2022-12-26T20:34:14.924Z,100.00
2022-12-26T20:36:42.726Z,100.00
2022-12-26T20:39:15.375Z,100.00
2022-12-26T20:41:43.342Z,100.00
2022-12-26T20:44:12.786Z,100.00
2022-12-26T20:46:41.746Z,100.00
2022-12-26T20:49:09.889Z,100.00
2022-12-26T20:51:39.753Z,100.00
2022-12-26T20:54:08.188Z,100.00
2022-12-26T20:56:37.692Z,100.00
2022-12-26T20:59:05.833Z,100.00
2022-12-26T21:01:35.115Z,100.00
2022-12-26T21:04:23.308Z,100.00
2022-12-26T21:07:11.317Z,100.00
2022-12-26T21:09:59.676Z,100.00
2022-12-26T21:12:48.975Z,100.00
2022-12-26T21:15:37.631Z,100.00
2022-12-26T21:18:25.625Z,100.00
2022-12-26T21:21:15.981Z,100.00
2022-12-26T21:24:06.191Z,100.00
2022-12-26T21:26:54.536Z,100.00
2022-12-26T21:29:43.897Z,100.00
2022-12-26T21:32:31.854Z,100.00
2022-12-26T21:35:19.807Z,100.00
2022-12-26T21:38:07.780Z,100.00
2022-12-26T21:40:55.919Z,100.00
2022-12-26T21:43:43.860Z,100.00
2022-12-26T21:46:33.206Z,100.00
2022-12-26T21:49:21.187Z,100.00
2022-12-26T21:52:09.692Z,100.00
2022-12-26T21:55:14.358Z,100.00
2022-12-26T21:58:03.829Z,100.00
2022-12-26T22:00:51.822Z,100.00
2022-12-26T22:03:58.856Z,100.00
2022-12-26T22:06:47.199Z,100.00
2022-12-26T22:09:35.106Z,100.00
2022-12-26T22:12:40.780Z,100.00
2022-12-26T22:15:46.578Z,100.00
2022-12-26T22:18:37.103Z,100.00
2022-12-26T22:21:26.842Z,100.00
2022-12-26T22:24:15.064Z,100.00
2022-12-26T22:27:03.038Z,100.00
2022-12-26T22:29:51.011Z,100.00
2022-12-26T22:32:39.205Z,100.00
2022-12-26T22:35:27.773Z,100.00
2022-12-26T22:38:17.099Z,100.00
2022-12-26T22:41:05.911Z,100.00
2022-12-26T22:43:53.962Z,100.00
2022-12-26T22:46:42.587Z,100.00
2022-12-26T22:49:30.597Z,100.00
2022-12-26T22:52:18.566Z,100.00
2022-12-26T22:55:08.539Z,100.00
2022-12-26T22:58:00.642Z,100.00
2022-12-26T23:00:50.380Z,100.00
2022-12-26T23:03:38.401Z,100.00
2022-12-26T23:06:28.566Z,100.00
2022-12-26T23:09:18.002Z,100.00
2022-12-26T23:12:27.598Z,100.00
2022-12-26T23:15:17.792Z,100.00
2022-12-26T23:18:35.015Z,100.00
2022-12-26T23:21:39.821Z,100.00
2022-12-26T23:24:29.911Z,100.00
2022-12-26T23:27:36.650Z,100.00
2022-12-26T23:30:31.009Z,100.00
2022-12-26T23:33:19.123Z,100.00
2022-12-26T23:36:08.958Z,100.00
2022-12-26T23:38:57.023Z,100.00
2022-12-26T23:41:45.079Z,100.00
2022-12-26T23:44:34.614Z,100.00
2022-12-26T23:47:22.804Z,100.00
2022-12-26T23:50:13.133Z,100.00
2022-12-26T23:53:01.198Z,100.00
2022-12-26T23:55:49.122Z,100.00
2022-12-26T23:58:39.784Z,100.00
